Time;durP1;ratioP1;P1;durP2;ratioP2;P2;SDS_P1;SDS_P2;PMS_P1;PMS_P2;Temp;Humidity;BMP_temperature;BMP_pressure;BME280_temperature;BME280_humidity;BME280_pressure;Samples;Min_cycle;Max_cycle;Signal;HPM_P1;HPM_P2
2022/09/09 00:01:25;;;;;;;5.30;2.37;;;17.90;99.90;;;;;;5075039;28;20479;-58
2022/09/09 00:03:58;;;;;;;3.57;1.77;;;17.90;99.90;;;;;;5075035;28;20425;-58
2022/09/09 00:06:31;;;;;;;3.87;1.90;;;17.80;99.90;;;;;;5075050;28;20838;-57
2022/09/09 00:09:06;;;;;;;5.07;2.10;;;17.90;99.90;;;;;;5075075;28;20432;-57
2022/09/09 00:11:41;;;;;;;2.93;2.00;;;18.30;99.90;;;;;;5074747;28;20480;-57
2022/09/09 00:14:19;;;;;;;2.17;1.60;;;18.30;99.90;;;;;;5074749;28;20483;-57
2022/09/09 00:16:52;;;;;;;2.53;2.33;;;18.30;99.90;;;;;;5074529;28;20429;-57
2022/09/09 00:19:24;;;;;;;2.40;1.77;;;18.30;99.90;;;;;;5074215;28;20899;-57
2022/09/09 00:21:57;;;;;;;2.60;2.40;;;18.50;99.90;;;;;;5074547;28;20814;-58
2022/09/09 00:24:30;;;;;;;2.70;2.07;;;18.60;99.90;;;;;;5074240;28;20482;-58
2022/09/09 00:27:05;;;;;;;3.93;2.10;;;18.60;99.90;;;;;;5074360;28;20464;-57
2022/09/09 00:29:42;;;;;;;2.00;1.70;;;18.50;99.90;;;;;;5074215;28;20433;-57
2022/09/09 00:32:16;;;;;;;2.63;1.90;;;18.50;99.90;;;;;;5074278;28;20483;-57
2022/09/09 00:34:48;;;;;;;3.83;1.97;;;18.50;99.90;;;;;;5074077;28;20440;-58
2022/09/09 00:37:17;;;;;;;4.17;1.80;;;18.70;99.90;;;;;;5074303;28;20439;-58
2022/09/09 00:39:47;;;;;;;2.33;1.70;;;18.80;99.90;;;;;;5073881;28;20432;-57
2022/09/09 00:42:17;;;;;;;2.57;1.70;;;18.70;99.90;;;;;;5074043;28;20963;-57
2022/09/09 00:44:56;;;;;;;2.90;1.90;;;18.70;99.90;;;;;;5074164;28;20506;-57
2022/09/09 00:47:51;;;;;;;3.20;2.00;;;18.70;99.90;;;;;;5074107;28;20504;-58
2022/09/09 00:50:29;;;;;;;3.90;1.80;;;18.60;99.90;;;;;;5073833;28;20541;-57
2022/09/09 00:53:06;;;;;;;2.40;1.77;;;18.50;99.90;;;;;;5074192;28;20435;-57
2022/09/09 00:55:44;;;;;;;2.27;1.50;;;18.40;99.90;;;;;;5073880;28;20416;-58
2022/09/09 00:58:12;;;;;;;5.47;2.23;;;18.40;99.90;;;;;;5073547;28;20477;-57
2022/09/09 01:00:44;;;;;;;5.13;2.03;;;18.30;99.90;;;;;;5073663;28;20466;-57
2022/09/09 01:03:26;;;;;;;2.83;1.80;;;18.20;99.90;;;;;;5073435;28;20914;-57
2022/09/09 01:06:03;;;;;;;5.53;1.97;;;18.10;99.90;;;;;;5073969;28;20468;-58
2022/09/09 01:08:42;;;;;;;4.70;1.70;;;18.20;99.90;;;;;;5074005;28;20428;-57
2022/09/09 01:11:17;;;;;;;2.73;1.83;;;18.10;99.90;;;;;;5073322;28;20476;-57
2022/09/09 01:13:48;;;;;;;1.93;1.73;;;18.30;99.90;;;;;;5073662;28;20428;-58
2022/09/09 01:16:16;;;;;;;4.07;2.00;;;18.40;99.90;;;;;;5073287;28;20432;-57
2022/09/09 01:18:47;;;;;;;7.77;2.07;;;18.40;99.90;;;;;;5073500;28;20448;-57
2022/09/09 01:21:21;;;;;;;2.90;1.97;;;18.30;99.90;;;;;;5073295;28;20469;-58
2022/09/09 01:24:14;;;;;;;2.40;2.00;;;18.20;99.90;;;;;;5073310;28;20423;-57
2022/09/09 01:26:43;;;;;;;2.90;1.77;;;18.30;99.90;;;;;;5073079;28;20467;-58
2022/09/09 01:29:13;;;;;;;2.10;1.83;;;18.40;99.90;;;;;;5073438;28;20764;-58
2022/09/09 01:31:43;;;;;;;2.87;1.77;;;18.30;99.90;;;;;;5073354;28;20491;-57
2022/09/09 01:34:13;;;;;;;1.80;1.50;;;18.50;99.90;;;;;;5073455;28;20455;-58
2022/09/09 01:36:45;;;;;;;4.60;1.40;;;18.90;99.90;;;;;;5072981;28;20449;-57
2022/09/09 01:39:13;;;;;;;1.73;1.60;;;19.10;99.90;;;;;;5072965;28;20425;-57
2022/09/09 01:41:41;;;;;;;2.20;1.93;;;19.50;99.90;;;;;;5073276;28;20472;-57
2022/09/09 01:44:09;;;;;;;2.90;1.90;;;19.30;99.90;;;;;;5073246;28;20452;-57
2022/09/09 01:46:36;;;;;;;1.97;1.53;;;19.10;99.90;;;;;;5073154;28;20488;-58
2022/09/09 01:49:07;;;;;;;4.43;1.80;;;19.10;99.90;;;;;;5073289;28;20471;-57
2022/09/09 01:51:34;;;;;;;2.30;2.03;;;18.80;99.90;;;;;;5073010;28;20811;-57
2022/09/09 01:54:03;;;;;;;3.70;1.90;;;19.00;99.90;;;;;;5073172;28;20445;-58
2022/09/09 01:56:41;;;;;;;2.37;1.50;;;19.00;99.90;;;;;;5073099;28;20452;-57
2022/09/09 01:59:24;;;;;;;4.50;2.10;;;18.90;99.90;;;;;;5072994;28;20431;-57
2022/09/09 02:02:00;;;;;;;3.80;1.63;;;18.60;99.90;;;;;;5072882;28;20970;-57
2022/09/09 02:04:38;;;;;;;10.53;1.77;;;18.60;99.90;;;;;;5072925;28;20904;-58
2022/09/09 02:07:15;;;;;;;4.27;1.90;;;18.50;99.90;;;;;;5073364;28;20468;-58
2022/09/09 02:09:46;;;;;;;4.40;2.00;;;18.40;99.90;;;;;;5072727;28;20895;-57
2022/09/09 02:12:18;;;;;;;3.17;2.00;;;18.50;99.90;;;;;;5073090;28;20472;-57
2022/09/09 02:14:51;;;;;;;1.93;1.50;;;18.50;99.90;;;;;;5075004;28;20429;-57
2022/09/09 02:17:23;;;;;;;3.20;1.83;;;18.60;99.90;;;;;;5076736;28;20429;-57
2022/09/09 02:19:56;;;;;;;3.17;1.90;;;18.80;99.90;;;;;;5076863;28;20808;-57
2022/09/09 02:22:27;;;;;;;3.63;1.63;;;18.80;99.90;;;;;;5076621;28;20468;-57
2022/09/09 02:24:58;;;;;;;2.40;1.90;;;18.50;99.90;;;;;;5076435;28;20446;-58
2022/09/09 02:27:25;;;;;;;6.07;2.37;;;18.50;99.90;;;;;;5076753;28;20464;-58
2022/09/09 02:29:56;;;;;;;3.20;1.70;;;18.30;99.90;;;;;;5076649;28;20448;-57
2022/09/09 02:32:25;;;;;;;3.77;1.70;;;18.10;99.90;;;;;;5076533;28;20460;-57
2022/09/09 02:34:57;;;;;;;5.80;1.80;;;18.10;99.90;;;;;;5076738;28;20444;-57
2022/09/09 02:37:29;;;;;;;3.17;1.80;;;18.10;99.90;;;;;;5076571;28;20451;-57
2022/09/09 02:39:56;;;;;;;6.70;1.90;;;18.30;99.90;;;;;;5076199;28;20428;-57
2022/09/09 02:42:23;;;;;;;3.33;2.00;;;18.40;99.90;;;;;;5075970;28;20491;-57
2022/09/09 02:44:51;;;;;;;2.73;1.90;;;18.30;99.90;;;;;;5076459;28;20456;-58
2022/09/09 02:47:28;;;;;;;3.50;1.60;;;18.10;99.90;;;;;;5075920;28;20480;-57
2022/09/09 02:50:04;;;;;;;2.80;2.30;;;18.20;99.90;;;;;;5075821;28;20986;-57
2022/09/09 02:52:39;;;;;;;2.80;2.10;;;18.00;99.90;;;;;;5075923;28;20460;-57
2022/09/09 02:55:13;;;;;;;2.53;2.33;;;17.70;99.90;;;;;;5075895;28;20433;-58
2022/09/09 02:57:41;;;;;;;4.47;2.47;;;17.60;99.90;;;;;;5076249;28;20413;-58
2022/09/09 03:00:10;;;;;;;3.73;2.00;;;17.70;99.90;;;;;;5076015;28;20440;-57
2022/09/09 03:02:39;;;;;;;2.87;1.70;;;17.60;99.90;;;;;;5075950;28;20834;-58
2022/09/09 03:05:07;;;;;;;2.30;2.10;;;17.40;99.90;;;;;;5075808;28;21009;-57
2022/09/09 03:07:39;;;;;;;6.53;2.23;;;17.50;99.90;;;;;;5076229;28;20480;-57
2022/09/09 03:10:08;;;;;;;3.97;1.77;;;17.40;99.90;;;;;;5075979;28;20447;-57
2022/09/09 03:12:35;;;;;;;2.10;1.40;;;17.20;99.90;;;;;;5075847;28;20525;-58
2022/09/09 03:15:02;;;;;;;3.83;1.50;;;17.40;99.90;;;;;;5075894;28;20523;-57
2022/09/09 03:17:29;;;;;;;3.77;1.80;;;17.60;99.90;;;;;;5075518;28;20884;-57
2022/09/09 03:19:58;;;;;;;3.67;1.70;;;17.50;99.90;;;;;;5075875;28;20471;-57
2022/09/09 03:22:26;;;;;;;1.67;1.57;;;17.50;99.90;;;;;;5075652;28;20827;-57
2022/09/09 03:24:53;;;;;;;5.20;1.70;;;17.40;99.90;;;;;;5074982;28;20517;-57
2022/09/09 03:27:20;;;;;;;2.03;1.57;;;17.40;99.90;;;;;;5075454;28;20506;-57
2022/09/09 03:29:50;;;;;;;1.63;1.53;;;17.30;99.90;;;;;;5075640;28;20475;-57
2022/09/09 03:32:18;;;;;;;4.50;1.47;;;17.30;99.90;;;;;;5075493;28;20473;-57
2022/09/09 03:34:47;;;;;;;2.70;1.63;;;17.70;99.90;;;;;;5075424;28;20849;-57
2022/09/09 03:37:15;;;;;;;2.80;1.87;;;17.80;99.90;;;;;;5075129;28;20448;-58
2022/09/09 03:39:42;;;;;;;2.83;1.77;;;17.70;99.90;;;;;;5075566;28;20444;-57
2022/09/09 03:42:10;;;;;;;4.23;1.63;;;17.70;99.90;;;;;;5074980;28;20479;-58
2022/09/09 03:44:37;;;;;;;3.60;2.23;;;17.70;99.90;;;;;;5075117;28;20539;-58
2022/09/09 03:47:06;;;;;;;3.83;1.83;;;17.90;99.90;;;;;;5075009;28;21014;-58
2022/09/09 03:49:33;;;;;;;5.03;1.70;;;18.10;99.90;;;;;;5074809;28;20480;-58
2022/09/09 03:52:00;;;;;;;3.50;1.80;;;18.10;99.90;;;;;;5074587;28;20480;-57
2022/09/09 03:54:29;;;;;;;2.30;2.10;;;17.90;99.90;;;;;;5074876;28;20942;-58
2022/09/09 03:56:57;;;;;;;1.57;1.47;;;18.20;99.90;;;;;;5074967;28;20440;-57
2022/09/09 03:59:25;;;;;;;2.20;1.53;;;18.10;99.90;;;;;;5074671;28;20483;-59
2022/09/09 04:01:52;;;;;;;2.57;1.40;;;18.10;99.90;;;;;;5074638;28;20559;-58
2022/09/09 04:04:20;;;;;;;1.70;1.60;;;17.80;99.90;;;;;;5074794;28;20536;-57
2022/09/09 04:06:48;;;;;;;2.87;1.90;;;17.50;99.90;;;;;;5074678;28;20488;-57
2022/09/09 04:09:15;;;;;;;4.17;1.80;;;17.90;99.90;;;;;;5074855;28;20497;-57
2022/09/09 04:11:43;;;;;;;2.50;1.90;;;17.70;99.90;;;;;;5074463;28;20478;-57
2022/09/09 04:14:10;;;;;;;2.73;1.70;;;17.80;99.90;;;;;;5074633;28;20467;-57
2022/09/09 04:16:38;;;;;;;2.33;1.67;;;17.70;99.90;;;;;;5074722;28;20441;-57
2022/09/09 04:19:06;;;;;;;2.37;1.70;;;17.70;99.90;;;;;;5074300;28;20444;-57
2022/09/09 04:21:33;;;;;;;2.70;1.80;;;17.80;99.90;;;;;;5074341;28;20468;-57
2022/09/09 04:24:00;;;;;;;4.70;1.97;;;18.00;99.90;;;;;;5074481;28;20479;-57
2022/09/09 04:26:27;;;;;;;4.90;1.90;;;18.00;99.90;;;;;;5074129;28;20476;-58
2022/09/09 04:28:56;;;;;;;3.40;1.70;;;18.20;99.90;;;;;;5074326;28;20470;-59
2022/09/09 04:31:24;;;;;;;2.20;1.77;;;18.60;99.90;;;;;;5074158;28;20468;-58
2022/09/09 04:33:51;;;;;;;6.73;1.77;;;18.50;99.90;;;;;;5074003;28;20463;-57
2022/09/09 04:36:19;;;;;;;4.70;2.03;;;18.50;99.90;;;;;;5073854;28;20808;-57
2022/09/09 04:38:48;;;;;;;3.90;1.80;;;18.40;99.90;;;;;;5073621;28;20452;-57
2022/09/09 04:41:16;;;;;;;2.63;1.70;;;18.30;99.90;;;;;;5073883;28;20476;-57
2022/09/09 04:43:43;;;;;;;2.07;1.60;;;17.90;99.90;;;;;;5073998;28;20876;-58
2022/09/09 04:46:12;;;;;;;3.77;2.27;;;17.80;99.90;;;;;;5073604;28;20972;-57
2022/09/09 04:48:39;;;;;;;3.00;2.50;;;18.20;99.90;;;;;;5073579;28;20448;-57
2022/09/09 04:51:08;;;;;;;2.93;2.03;;;18.40;99.90;;;;;;5073512;28;20476;-58
2022/09/09 04:53:35;;;;;;;2.40;2.20;;;18.10;99.90;;;;;;5073620;28;20449;-57
2022/09/09 04:56:04;;;;;;;2.37;2.17;;;17.50;99.90;;;;;;5073810;28;20885;-57
2022/09/09 04:58:31;;;;;;;3.03;2.27;;;17.10;99.90;;;;;;5073834;28;20913;-58
2022/09/09 05:01:05;;;;;;;3.10;2.20;;;17.00;99.90;;;;;;5073368;28;20998;-58
2022/09/09 05:03:34;;;;;;;5.10;2.20;;;17.00;99.90;;;;;;5073316;28;20436;-57
2022/09/09 05:06:09;;;;;;;5.93;2.23;;;16.80;99.90;;;;;;5073431;28;20935;-57
2022/09/09 05:08:37;;;;;;;4.23;1.90;;;16.70;99.90;;;;;;5073705;28;20514;-57
2022/09/09 05:11:04;;;;;;;3.50;2.10;;;16.90;99.90;;;;;;5073223;28;20950;-57
2022/09/09 05:13:32;;;;;;;2.63;1.60;;;17.40;99.90;;;;;;5073578;28;20432;-58
2022/09/09 05:15:59;;;;;;;7.63;2.17;;;17.50;99.90;;;;;;5073315;28;20448;-58
2022/09/09 05:18:26;;;;;;;2.27;1.70;;;17.70;99.90;;;;;;5073180;28;20969;-57
2022/09/09 05:21:00;;;;;;;3.10;1.93;;;17.40;99.90;;;;;;5073018;28;20472;-58
2022/09/09 05:23:27;;;;;;;3.47;2.00;;;17.40;99.90;;;;;;5073324;28;20425;-57
2022/09/09 05:25:58;;;;;;;2.80;1.93;;;17.60;99.90;;;;;;5073088;28;20470;-57
2022/09/09 05:28:26;;;;;;;1.80;1.70;;;17.80;99.90;;;;;;5072981;28;20483;-57
2022/09/09 05:30:58;;;;;;;8.70;2.20;;;17.80;99.90;;;;;;5073379;28;20468;-57
2022/09/09 05:33:26;;;;;;;2.27;2.03;;;17.80;99.90;;;;;;5073016;28;20444;-58
2022/09/09 05:35:59;;;;;;;4.43;2.13;;;17.80;99.90;;;;;;5072969;28;20958;-57
2022/09/09 05:38:26;;;;;;;2.90;2.47;;;17.90;99.90;;;;;;5072939;28;20440;-58
2022/09/09 05:40:55;;;;;;;5.00;2.53;;;17.60;99.90;;;;;;5072709;28;21034;-58
2022/09/09 05:43:22;;;;;;;5.63;2.60;;;17.60;99.90;;;;;;5073099;28;20432;-57
2022/09/09 05:46:00;;;;;;;5.10;1.90;;;17.70;99.90;;;;;;5072844;28;20448;-57
2022/09/09 05:48:30;;;;;;;3.50;2.03;;;17.80;99.90;;;;;;5074456;28;20460;-57
2022/09/09 05:50:59;;;;;;;3.27;1.80;;;18.20;99.90;;;;;;5077357;28;20525;-58
2022/09/09 05:53:26;;;;;;;1.80;1.60;;;18.40;99.90;;;;;;5076899;28;20810;-57
2022/09/09 05:56:01;;;;;;;3.10;2.03;;;18.70;99.90;;;;;;5077214;28;20474;-57
2022/09/09 05:58:28;;;;;;;4.20;1.77;;;18.50;99.90;;;;;;5077336;28;20428;-57
2022/09/09 06:01:02;;;;;;;2.33;1.70;;;18.70;99.90;;;;;;5077280;28;20472;-58
2022/09/09 06:03:29;;;;;;;3.53;1.97;;;18.60;99.90;;;;;;5076732;28;20436;-57
2022/09/09 06:06:02;;;;;;;4.70;1.97;;;18.50;99.90;;;;;;5077258;28;20548;-57
2022/09/09 06:08:29;;;;;;;3.60;1.87;;;18.60;99.90;;;;;;5076930;28;20562;-57
2022/09/09 06:11:03;;;;;;;5.53;2.17;;;18.40;99.90;;;;;;5076946;28;20931;-57
2022/09/09 06:13:31;;;;;;;4.70;2.43;;;18.30;99.90;;;;;;5076692;28;20416;-58
2022/09/09 06:15:59;;;;;;;2.93;1.97;;;18.10;99.90;;;;;;5076527;28;20949;-57
2022/09/09 06:18:27;;;;;;;3.00;2.00;;;18.30;99.90;;;;;;5076809;28;20992;-58
2022/09/09 06:20:58;;;;;;;2.50;2.30;;;18.00;99.90;;;;;;5076684;28;20555;-58
2022/09/09 06:23:27;;;;;;;2.30;1.80;;;17.90;99.90;;;;;;5076407;28;20471;-58
2022/09/09 06:26:02;;;;;;;2.17;1.73;;;18.10;99.90;;;;;;5076580;28;20452;-57
2022/09/09 06:28:30;;;;;;;3.37;1.87;;;18.00;99.90;;;;;;5076541;28;20824;-57
2022/09/09 06:31:00;;;;;;;3.13;1.87;;;18.50;99.90;;;;;;5076500;28;20627;-57
2022/09/09 06:33:27;;;;;;;3.33;1.80;;;18.60;99.90;;;;;;5076218;28;20497;-58
2022/09/09 06:35:56;;;;;;;5.93;2.00;;;18.70;99.90;;;;;;5076411;28;20480;-57
2022/09/09 06:38:25;;;;;;;4.37;2.00;;;18.70;99.90;;;;;;5076238;28;20537;-57
2022/09/09 06:40:55;;;;;;;2.17;1.87;;;18.80;99.90;;;;;;5076012;28;20810;-57
2022/09/09 06:43:22;;;;;;;1.73;1.63;;;18.70;99.90;;;;;;5076120;28;20436;-57
2022/09/09 06:45:57;;;;;;;2.83;1.83;;;19.00;99.90;;;;;;5076360;28;20458;-57
2022/09/09 06:48:25;;;;;;;8.83;2.30;;;19.00;99.90;;;;;;5075927;28;20479;-58
2022/09/09 06:51:00;;;;;;;7.60;2.20;;;19.10;99.90;;;;;;5076226;28;20464;-58
2022/09/09 06:53:27;;;;;;;1.90;1.70;;;18.90;99.90;;;;;;5075581;28;20539;-58
2022/09/09 06:55:56;;;;;;;5.80;1.97;;;19.40;99.90;;;;;;5076258;28;20535;-57
2022/09/09 06:58:23;;;;;;;3.60;1.90;;;19.60;99.90;;;;;;5076172;28;20451;-58
2022/09/09 07:00:50;;;;;;;2.80;1.97;;;19.50;99.90;;;;;;5074959;28;20967;-58
2022/09/09 07:03:17;;;;;;;6.27;2.00;;;19.20;99.90;;;;;;5075840;28;20520;-58
2022/09/09 07:05:54;;;;;;;2.30;1.77;;;18.80;99.90;;;;;;5075512;28;20957;-57
2022/09/09 07:08:21;;;;;;;2.80;1.83;;;18.80;99.90;;;;;;5075691;28;20464;-58
2022/09/09 07:10:49;;;;;;;3.60;2.13;;;18.80;99.90;;;;;;5075743;28;20474;-57
2022/09/09 07:13:21;;;;;;;3.50;2.30;;;18.90;99.90;;;;;;5075751;28;20425;-57
2022/09/09 07:15:48;;;;;;;3.30;2.27;;;19.50;99.90;;;;;;5075365;28;20429;-57
2022/09/09 07:18:15;;;;;;;8.80;2.20;;;19.30;99.90;;;;;;5075711;28;20444;-57
2022/09/09 07:20:42;;;;;;;3.60;1.80;;;19.10;99.90;;;;;;5075863;28;20440;-57
2022/09/09 07:23:09;;;;;;;3.03;1.90;;;19.40;99.90;;;;;;5075529;28;20535;-57
2022/09/09 07:25:37;;;;;;;8.20;2.37;;;19.30;99.90;;;;;;5075556;28;20448;-58
2022/09/09 07:28:04;;;;;;;3.30;1.90;;;19.50;99.90;;;;;;5075454;28;20506;-58
2022/09/09 07:30:32;;;;;;;2.60;2.10;;;19.50;99.90;;;;;;5075041;28;20923;-57
2022/09/09 07:32:59;;;;;;;9.13;2.07;;;19.60;99.90;;;;;;5075373;28;20440;-58
2022/09/09 07:35:27;;;;;;;5.27;1.90;;;19.80;99.90;;;;;;5075223;28;20449;-58
2022/09/09 07:37:54;;;;;;;4.27;2.67;;;19.90;99.90;;;;;;5074998;28;20923;-57
2022/09/09 07:40:22;;;;;;;1.87;1.70;;;20.40;99.90;;;;;;5075321;28;20448;-58
2022/09/09 07:42:49;;;;;;;2.70;2.10;;;20.30;99.90;;;;;;5075492;28;20484;-57
2022/09/09 07:45:16;;;;;;;3.73;2.47;;;19.90;99.90;;;;;;5074768;28;21001;-58
2022/09/09 07:47:45;;;;;;;5.10;2.20;;;19.90;99.90;;;;;;5074733;28;20480;-57
2022/09/09 07:50:12;;;;;;;2.63;1.90;;;20.00;99.90;;;;;;5074769;28;20836;-57
2022/09/09 07:52:39;;;;;;;2.17;1.57;;;20.10;99.90;;;;;;5074721;28;20861;-57
2022/09/09 07:55:07;;;;;;;2.40;1.67;;;19.90;99.90;;;;;;5074973;28;20444;-57
2022/09/09 07:57:34;;;;;;;2.90;1.70;;;19.70;99.90;;;;;;5074922;28;20797;-57
2022/09/09 08:00:02;;;;;;;3.50;2.03;;;20.20;99.90;;;;;;5074894;28;20861;-57
2022/09/09 08:02:29;;;;;;;1.87;1.50;;;20.20;99.90;;;;;;5074556;28;20507;-57
2022/09/09 08:04:58;;;;;;;2.10;1.87;;;20.20;99.90;;;;;;5074400;28;20444;-58
2022/09/09 08:07:25;;;;;;;2.07;1.73;;;20.20;99.90;;;;;;5074370;28;20456;-58
2022/09/09 08:09:52;;;;;;;2.60;1.80;;;20.40;99.90;;;;;;5074673;28;20452;-58
2022/09/09 08:12:20;;;;;;;3.40;1.80;;;20.70;99.90;;;;;;5073488;28;20476;-58
2022/09/09 08:14:47;;;;;;;3.57;2.00;;;20.60;99.90;;;;;;5074533;28;20528;-57
2022/09/09 08:17:14;;;;;;;2.97;1.97;;;20.50;99.90;;;;;;5074485;28;20480;-58
2022/09/09 08:19:41;;;;;;;5.10;2.00;;;20.50;99.90;;;;;;5074332;28;20535;-57
2022/09/09 08:22:10;;;;;;;4.57;1.73;;;20.50;99.90;;;;;;5074076;28;21030;-57
2022/09/09 08:24:37;;;;;;;4.10;1.70;;;20.40;99.90;;;;;;5074172;28;20452;-57
2022/09/09 08:27:04;;;;;;;5.17;1.97;;;20.40;99.90;;;;;;5074299;28;20455;-57
2022/09/09 08:29:31;;;;;;;3.63;1.70;;;20.60;99.90;;;;;;5074277;28;20491;-57
2022/09/09 08:32:01;;;;;;;2.20;1.93;;;21.00;99.90;;;;;;5073930;28;20456;-58
2022/09/09 08:34:30;;;;;;;5.67;2.03;;;21.10;99.90;;;;;;5074271;28;20463;-57
2022/09/09 08:36:57;;;;;;;3.50;2.10;;;21.10;99.90;;;;;;5074242;28;20448;-57
2022/09/09 08:39:25;;;;;;;4.20;1.67;;;21.10;99.90;;;;;;5073705;28;20449;-58
2022/09/09 08:42:19;;;;;;;5.70;2.00;;;21.10;99.90;;;;;;5073929;28;20485;-57
2022/09/09 08:45:10;;;;;;;3.47;1.87;;;21.30;99.90;;;;;;5073905;28;20459;-57
2022/09/09 08:47:49;;;;;;;2.27;1.67;;;21.20;99.90;;;;;;5073731;28;20429;-57
2022/09/09 08:50:24;;;;;;;3.50;2.10;;;21.20;99.90;;;;;;5073351;28;20479;-57
2022/09/09 08:52:57;;;;;;;3.23;1.70;;;21.40;99.90;;;;;;5073325;28;21065;-56
2022/09/09 08:55:33;;;;;;;5.07;2.10;;;21.70;99.90;;;;;;5073364;28;20476;-58
2022/09/09 08:58:13;;;;;;;3.23;1.80;;;21.90;99.90;;;;;;5073619;28;20473;-61
2022/09/09 09:00:53;;;;;;;2.70;2.10;;;22.50;99.90;;;;;;5073798;28;20428;-57
2022/09/09 09:03:28;;;;;;;31.87;12.53;;;23.10;99.90;;;;;;5073646;28;20447;-57
2022/09/09 09:06:05;;;;;;;33.77;16.83;;;23.50;99.90;;;;;;5073120;28;20931;-58
2022/09/09 09:08:42;;;;;;;3.43;1.43;;;24.50;99.90;;;;;;5073280;28;21001;-59
2022/09/09 09:11:10;;;;;;;5.50;1.90;;;23.90;98.30;;;;;;5073138;28;21032;-55
2022/09/09 09:13:46;;;;;;;2.73;1.80;;;23.20;99.10;;;;;;5073489;28;20432;-58
2022/09/09 09:16:23;;;;;;;29.80;16.07;;;22.80;99.90;;;;;;5073365;28;20895;-55
2022/09/09 09:18:52;;;;;;;15.37;8.17;;;22.50;99.90;;;;;;5073455;28;20490;-56
2022/09/09 09:21:35;;;;;;;4.80;1.87;;;22.30;99.90;;;;;;5073281;28;20468;-61
2022/09/09 09:24:03;;;;;;;8.93;5.00;;;21.90;99.90;;;;;;5072667;28;20433;-60
2022/09/09 09:26:34;;;;;;;3.67;2.50;;;21.40;99.90;;;;;;5073493;28;20498;-59
2022/09/09 09:29:09;;;;;;;6.60;3.40;;;21.10;99.90;;;;;;5073501;28;20547;-61
2022/09/09 09:31:36;;;;;;;4.40;2.00;;;21.10;99.90;;;;;;5073354;28;20503;-57
2022/09/09 09:34:03;;;;;;;4.60;1.90;;;20.80;99.90;;;;;;5072904;28;20480;-58
2022/09/09 09:36:39;;;;;;;1.30;1.20;;;20.20;99.90;;;;;;5073327;28;20552;-58
2022/09/09 09:39:06;;;;;;;5.07;2.60;;;19.80;99.90;;;;;;5073297;28;20427;-58
2022/09/09 09:41:38;;;;;;;3.23;2.43;;;19.90;99.90;;;;;;5073132;28;20479;-58
2022/09/09 09:44:07;;;;;;;4.73;2.03;;;20.60;99.90;;;;;;5072925;28;20482;-59
2022/09/09 09:46:34;;;;;;;2.23;2.03;;;21.90;99.90;;;;;;5073006;28;20456;-60
2022/09/09 09:49:03;;;;;;;3.00;1.40;;;22.80;99.90;;;;;;5071811;28;21005;-58
2022/09/09 09:51:36;;;;;;;2.73;1.80;;;23.40;98.10;;;;;;5072954;28;20543;-57
2022/09/09 09:54:15;;;;;;;5.57;1.77;;;24.50;99.10;;;;;;5072404;28;20450;-55
2022/09/09 09:56:45;;;;;;;2.00;1.70;;;24.20;97.10;;;;;;5072895;28;20436;-59
2022/09/09 09:59:22;;;;;;;2.00;1.40;;;24.30;96.20;;;;;;5072863;28;20440;-57
2022/09/09 10:01:49;;;;;;;2.00;1.63;;;25.30;95.60;;;;;;5072907;28;20475;-62
2022/09/09 10:04:20;;;;;;;2.70;1.63;;;25.40;94.80;;;;;;5072727;28;20954;-56
2022/09/09 10:06:48;;;;;;;1.70;1.60;;;26.30;94.70;;;;;;5072813;28;20428;-59
2022/09/09 10:09:27;;;;;;;2.90;1.70;;;25.60;94.40;;;;;;5072919;28;20468;-59
2022/09/09 10:12:06;;;;;;;2.03;1.53;;;26.40;94.30;;;;;;5072658;28;20571;-60
2022/09/09 10:14:40;;;;;;;2.10;1.37;;;25.70;93.80;;;;;;5072711;28;20429;-60
2022/09/09 10:17:21;;;;;;;2.20;1.90;;;26.00;94.40;;;;;;5072932;28;20432;-60
2022/09/09 10:20:02;;;;;;;5.03;1.47;;;26.90;92.40;;;;;;5072653;28;20413;-59
2022/09/09 10:22:34;;;;;;;2.47;1.57;;;27.00;92.50;;;;;;5072476;28;20468;-61
2022/09/09 10:25:44;;;;;;;2.17;1.33;;;26.40;92.10;;;;;;5072768;28;20435;-62
2022/09/09 10:28:44;;;;;;;2.30;1.77;;;26.40;92.90;;;;;;5067810;28;20469;-62
2022/09/09 10:31:20;;;;;;;3.27;2.20;;;;;;;;;;5072649;28;20805;-63
2022/09/09 10:33:52;;;;;;;5.13;1.80;;;27.20;91.10;;;;;;5072645;28;20458;-62
2022/09/09 10:36:22;;;;;;;3.17;1.90;;;26.30;92.10;;;;;;5075602;28;20551;-59
2022/09/09 10:38:54;;;;;;;4.23;1.80;;;25.40;92.50;;;;;;5076371;28;20523;-62
2022/09/09 10:41:34;;;;;;;5.50;1.90;;;25.10;94.00;;;;;;5076160;28;20537;-59
2022/09/09 10:44:22;;;;;;;3.50;1.70;;;25.30;94.10;;;;;;5076174;28;20791;-61
2022/09/09 10:47:16;;;;;;;4.77;2.00;;;25.20;94.70;;;;;;5075695;28;20433;-61
2022/09/09 10:50:00;;;;;;;3.10;2.00;;;24.70;95.20;;;;;;5075826;28;20492;-63
2022/09/09 10:52:36;;;;;;;8.43;2.03;;;24.50;94.80;;;;;;5076224;28;20471;-58
2022/09/09 10:55:11;;;;;;;4.00;1.60;;;24.70;95.40;;;;;;5076187;28;20432;-61
2022/09/09 10:57:42;;;;;;;2.70;1.83;;;25.60;94.20;;;;;;5075894;28;20424;-60
2022/09/09 11:00:20;;;;;;;2.77;1.50;;;25.90;94.90;;;;;;5075723;28;20428;-59
2022/09/09 11:02:51;;;;;;;1.63;1.53;;;25.20;96.10;;;;;;5075597;28;20965;-58
2022/09/09 11:05:21;;;;;;;8.40;3.07;;;25.90;94.90;;;;;;5075946;28;20474;-59
2022/09/09 11:07:52;;;;;;;4.03;2.07;;;27.10;93.70;;;;;;5075607;28;20459;-60
2022/09/09 11:10:27;;;;;;;3.47;1.87;;;26.50;93.20;;;;;;5075464;28;21024;-60
2022/09/09 11:13:00;;;;;;;2.10;1.60;;;26.40;93.40;;;;;;5076005;28;20455;-59
2022/09/09 11:15:35;;;;;;;2.70;1.63;;;26.20;93.40;;;;;;5075927;28;20491;-60
2022/09/09 11:18:07;;;;;;;2.10;1.40;;;25.40;92.70;;;;;;5075984;28;20495;-59
2022/09/09 11:20:35;;;;;;;2.93;2.00;;;24.60;92.70;;;;;;5075377;28;20421;-59
2022/09/09 11:23:06;;;;;;;3.30;1.73;;;24.00;93.70;;;;;;5075506;28;20448;-60
2022/09/09 11:25:38;;;;;;;2.20;1.70;;;23.10;92.90;;;;;;5075458;28;20413;-60
2022/09/09 11:28:30;;;;;;;1.77;1.10;;;22.60;92.70;;;;;;5075254;28;20445;-59
2022/09/09 11:31:13;;;;;;;1.80;1.30;;;22.50;92.20;;;;;;5075017;28;20492;-60
2022/09/09 11:34:14;;;;;;;2.80;1.30;;;22.40;93.60;;;;;;5075112;28;20910;-59
2022/09/09 11:37:29;;;;;;;6.93;1.47;;;22.70;93.90;;;;;;5064523;28;20506;-60
2022/09/09 11:40:17;;;;;;;2.90;1.40;;;22.60;94.60;;;;;;5013288;28;20855;-60
2022/09/09 11:42:44;;;;;;;4.93;1.57;;;;;;;;;;5075282;28;20555;-60
2022/09/09 11:45:21;;;;;;;1.60;1.30;;;22.30;94.40;;;;;;5074898;28;20448;-60
2022/09/09 11:47:55;;;;;;;2.27;1.30;;;22.50;95.20;;;;;;5074909;28;20747;-59
2022/09/09 11:50:34;;;;;;;2.20;1.57;;;22.00;95.20;;;;;;5074779;28;20494;-59
2022/09/09 11:53:23;;;;;;;4.30;1.23;;;22.00;95.60;;;;;;5074904;28;20432;-59
2022/09/09 11:56:13;;;;;;;2.40;1.57;;;22.20;95.50;;;;;;5075095;28;20985;-59
2022/09/09 11:58:54;;;;;;;2.00;1.60;;;22.40;95.40;;;;;;5075172;28;20429;-60
2022/09/09 12:01:36;;;;;;;1.80;1.20;;;22.00;95.30;;;;;;5074910;28;20819;-59
2022/09/09 12:04:17;;;;;;;1.97;1.30;;;22.00;95.30;;;;;;5074942;28;20461;-61
2022/09/09 12:06:46;;;;;;;2.70;1.30;;;21.90;94.80;;;;;;5074741;28;20455;-59
2022/09/09 12:09:24;;;;;;;2.40;1.30;;;22.50;95.50;;;;;;5074657;28;20490;-59
2022/09/09 12:11:51;;;;;;;2.60;1.37;;;23.00;94.70;;;;;;5074636;28;20476;-60
2022/09/09 12:14:35;;;;;;;3.87;1.10;;;23.40;93.60;;;;;;5074197;28;20810;-60
2022/09/09 12:17:18;;;;;;;2.70;1.13;;;23.70;93.50;;;;;;5074727;28;20428;-59
2022/09/09 12:19:47;;;;;;;1.63;1.30;;;24.10;93.10;;;;;;5074755;28;20429;-60
2022/09/09 12:22:28;;;;;;;2.10;1.60;;;24.00;91.60;;;;;;5074167;28;20456;-60
2022/09/09 12:25:05;;;;;;;1.80;1.27;;;24.50;91.60;;;;;;5074461;28;20428;-60
2022/09/09 12:27:38;;;;;;;2.13;1.20;;;24.90;90.80;;;;;;5074170;28;20507;-60
2022/09/09 12:30:11;;;;;;;1.83;1.17;;;25.00;90.80;;;;;;5073925;28;20464;-59
2022/09/09 12:32:39;;;;;;;2.03;1.10;;;24.80;90.80;;;;;;5073873;28;20840;-60
2022/09/09 12:35:13;;;;;;;1.63;1.20;;;24.30;89.90;;;;;;5074325;28;20451;-60
2022/09/09 12:37:43;;;;;;;2.63;1.10;;;24.90;89.30;;;;;;5074195;28;20434;-60
2022/09/09 12:40:21;;;;;;;2.20;1.20;;;25.50;88.60;;;;;;5073843;28;20428;-59
2022/09/09 12:42:49;;;;;;;1.60;1.10;;;25.00;86.80;;;;;;5074132;28;20476;-60
2022/09/09 12:45:19;;;;;;;1.93;1.07;;;24.80;88.20;;;;;;5074044;28;20814;-59
2022/09/09 12:47:50;;;;;;;1.40;1.10;;;24.70;87.90;;;;;;5073644;28;20887;-60
2022/09/09 12:50:22;;;;;;;2.17;1.10;;;24.00;88.40;;;;;;5073491;28;20502;-60
2022/09/09 12:52:53;;;;;;;1.33;1.10;;;23.40;90.00;;;;;;5073409;28;21073;-60
2022/09/09 12:55:24;;;;;;;2.23;1.10;;;23.60;90.60;;;;;;5073679;28;20546;-60
2022/09/09 12:57:53;;;;;;;2.07;1.10;;;23.70;90.40;;;;;;5072955;28;20470;-59
2022/09/09 13:00:22;;;;;;;1.50;1.40;;;23.80;90.70;;;;;;5073455;28;20448;-59
2022/09/09 13:02:55;;;;;;;5.90;1.53;;;24.00;90.70;;;;;;5073785;28;20472;-60
2022/09/09 13:05:27;;;;;;;1.30;1.17;;;24.30;90.00;;;;;;5073831;28;20435;-59
2022/09/09 13:08:02;;;;;;;1.43;1.00;;;24.70;90.30;;;;;;5073379;28;20933;-60
2022/09/09 13:10:33;;;;;;;2.03;1.30;;;25.10;90.10;;;;;;5073179;28;20853;-60
2022/09/09 13:13:00;;;;;;;2.50;1.67;;;25.10;87.80;;;;;;5073531;28;20861;-59